sensor_id;sensor_type;location;lat;lon;timestamp;P1;durP1;ratioP1;P2;durP2;ratioP2
69534;SDS011;56754;51.568;5.048;2023-12-22T00:00:51;9.23;;;1.00;;
69534;SDS011;56754;51.568;5.048;2023-12-22T00:03:17;15.20;;;1.60;;
69534;SDS011;56754;51.568;5.048;2023-12-22T00:05:42;8.38;;;1.33;;
69534;SDS011;56754;51.568;5.048;2023-12-22T00:08:07;13.05;;;1.35;;
69534;SDS011;56754;51.568;5.048;2023-12-22T00:10:32;12.70;;;1.57;;
69534;SDS011;56754;51.568;5.048;2023-12-22T00:12:57;5.60;;;1.00;;
69534;SDS011;56754;51.568;5.048;2023-12-22T00:15:22;13.00;;;1.42;;
69534;SDS011;56754;51.568;5.048;2023-12-22T00:17:47;10.00;;;1.37;;
69534;SDS011;56754;51.568;5.048;2023-12-22T00:20:13;11.33;;;1.30;;
69534;SDS011;56754;51.568;5.048;2023-12-22T00:22:38;9.20;;;0.90;;
69534;SDS011;56754;51.568;5.048;2023-12-22T00:25:03;10.20;;;1.15;;
69534;SDS011;56754;51.568;5.048;2023-12-22T00:27:28;12.33;;;1.63;;
69534;SDS011;56754;51.568;5.048;2023-12-22T00:29:53;11.77;;;1.50;;
69534;SDS011;56754;51.568;5.048;2023-12-22T00:32:18;9.63;;;1.20;;
69534;SDS011;56754;51.568;5.048;2023-12-22T00:34:44;10.95;;;1.70;;
69534;SDS011;56754;51.568;5.048;2023-12-22T00:37:09;9.13;;;1.15;;
69534;SDS011;56754;51.568;5.048;2023-12-22T00:39:34;9.90;;;1.73;;
69534;SDS011;56754;51.568;5.048;2023-12-22T00:41:59;15.35;;;1.45;;
69534;SDS011;56754;51.568;5.048;2023-12-22T00:44:24;8.23;;;1.10;;
69534;SDS011;56754;51.568;5.048;2023-12-22T00:46:49;10.33;;;1.47;;
69534;SDS011;56754;51.568;5.048;2023-12-22T00:49:15;9.95;;;1.58;;
69534;SDS011;56754;51.568;5.048;2023-12-22T00:51:40;10.13;;;1.70;;
69534;SDS011;56754;51.568;5.048;2023-12-22T00:54:05;9.48;;;1.30;;
69534;SDS011;56754;51.568;5.048;2023-12-22T00:56:30;9.35;;;1.23;;
69534;SDS011;56754;51.568;5.048;2023-12-22T00:58:55;11.97;;;1.30;;
69534;SDS011;56754;51.568;5.048;2023-12-22T01:01:20;8.82;;;1.27;;
69534;SDS011;56754;51.568;5.048;2023-12-22T01:03:45;8.52;;;0.93;;
69534;SDS011;56754;51.568;5.048;2023-12-22T01:06:11;7.43;;;1.10;;
69534;SDS011;56754;51.568;5.048;2023-12-22T01:08:36;8.77;;;1.27;;
69534;SDS011;56754;51.568;5.048;2023-12-22T01:11:01;8.10;;;1.00;;
69534;SDS011;56754;51.568;5.048;2023-12-22T01:13:27;11.10;;;1.30;;
69534;SDS011;56754;51.568;5.048;2023-12-22T01:15:52;9.83;;;1.10;;
69534;SDS011;56754;51.568;5.048;2023-12-22T01:18:17;7.93;;;1.10;;
69534;SDS011;56754;51.568;5.048;2023-12-22T01:20:42;11.10;;;1.17;;
69534;SDS011;56754;51.568;5.048;2023-12-22T01:23:07;13.30;;;1.50;;
69534;SDS011;56754;51.568;5.048;2023-12-22T01:25:32;10.68;;;1.38;;
69534;SDS011;56754;51.568;5.048;2023-12-22T01:27:57;10.98;;;1.15;;
69534;SDS011;56754;51.568;5.048;2023-12-22T01:30:22;11.23;;;1.27;;
69534;SDS011;56754;51.568;5.048;2023-12-22T01:32:48;10.50;;;1.10;;
69534;SDS011;56754;51.568;5.048;2023-12-22T01:35:13;10.27;;;1.35;;
69534;SDS011;56754;51.568;5.048;2023-12-22T01:37:38;10.38;;;1.25;;
69534;SDS011;56754;51.568;5.048;2023-12-22T01:40:03;14.57;;;1.70;;
69534;SDS011;56754;51.568;5.048;2023-12-22T01:42:29;9.63;;;1.23;;
69534;SDS011;56754;51.568;5.048;2023-12-22T01:44:54;11.67;;;1.40;;
69534;SDS011;56754;51.568;5.048;2023-12-22T01:47:19;10.83;;;1.33;;
69534;SDS011;56754;51.568;5.048;2023-12-22T01:49:45;10.67;;;1.00;;
69534;SDS011;56754;51.568;5.048;2023-12-22T01:52:10;12.97;;;1.40;;
69534;SDS011;56754;51.568;5.048;2023-12-22T01:54:36;10.10;;;1.30;;
69534;SDS011;56754;51.568;5.048;2023-12-22T01:57:01;9.67;;;1.27;;
69534;SDS011;56754;51.568;5.048;2023-12-22T01:59:26;10.70;;;1.60;;
69534;SDS011;56754;51.568;5.048;2023-12-22T02:01:52;10.10;;;1.50;;
69534;SDS011;56754;51.568;5.048;2023-12-22T02:04:18;7.25;;;1.00;;
69534;SDS011;56754;51.568;5.048;2023-12-22T02:06:44;9.98;;;1.10;;
69534;SDS011;56754;51.568;5.048;2023-12-22T02:09:09;10.33;;;1.00;;
69534;SDS011;56754;51.568;5.048;2023-12-22T02:11:34;11.57;;;1.20;;
69534;SDS011;56754;51.568;5.048;2023-12-22T02:13:59;14.20;;;1.87;;
69534;SDS011;56754;51.568;5.048;2023-12-22T02:16:31;11.53;;;1.30;;
69534;SDS011;56754;51.568;5.048;2023-12-22T02:19:04;11.75;;;1.50;;
69534;SDS011;56754;51.568;5.048;2023-12-22T02:21:35;10.70;;;1.35;;
69534;SDS011;56754;51.568;5.048;2023-12-22T02:24:00;12.77;;;1.30;;
69534;SDS011;56754;51.568;5.048;2023-12-22T02:26:27;10.93;;;1.43;;
69534;SDS011;56754;51.568;5.048;2023-12-22T02:28:54;13.90;;;1.20;;
69534;SDS011;56754;51.568;5.048;2023-12-22T02:31:33;8.25;;;1.10;;
69534;SDS011;56754;51.568;5.048;2023-12-22T02:34:01;11.13;;;1.90;;
69534;SDS011;56754;51.568;5.048;2023-12-22T02:36:27;11.35;;;1.27;;
69534;SDS011;56754;51.568;5.048;2023-12-22T02:38:54;10.40;;;1.30;;
69534;SDS011;56754;51.568;5.048;2023-12-22T02:41:19;9.40;;;1.30;;
69534;SDS011;56754;51.568;5.048;2023-12-22T02:43:44;10.73;;;1.10;;
69534;SDS011;56754;51.568;5.048;2023-12-22T02:46:16;10.07;;;1.33;;
69534;SDS011;56754;51.568;5.048;2023-12-22T02:48:41;8.95;;;1.10;;
69534;SDS011;56754;51.568;5.048;2023-12-22T02:51:06;9.48;;;1.38;;
69534;SDS011;56754;51.568;5.048;2023-12-22T02:53:31;7.07;;;1.53;;
69534;SDS011;56754;51.568;5.048;2023-12-22T02:55:56;8.05;;;0.90;;
69534;SDS011;56754;51.568;5.048;2023-12-22T02:58:22;6.47;;;1.00;;
69534;SDS011;56754;51.568;5.048;2023-12-22T03:00:47;11.30;;;1.42;;
69534;SDS011;56754;51.568;5.048;2023-12-22T03:03:12;13.67;;;1.10;;
69534;SDS011;56754;51.568;5.048;2023-12-22T03:05:37;10.87;;;1.33;;
69534;SDS011;56754;51.568;5.048;2023-12-22T03:08:02;9.68;;;1.27;;
69534;SDS011;56754;51.568;5.048;2023-12-22T03:10:28;8.20;;;1.10;;
69534;SDS011;56754;51.568;5.048;2023-12-22T03:12:54;9.57;;;1.27;;
69534;SDS011;56754;51.568;5.048;2023-12-22T03:15:19;11.90;;;1.20;;
69534;SDS011;56754;51.568;5.048;2023-12-22T03:17:44;10.13;;;1.07;;
69534;SDS011;56754;51.568;5.048;2023-12-22T03:20:09;9.18;;;1.10;;
69534;SDS011;56754;51.568;5.048;2023-12-22T03:22:34;11.60;;;1.03;;
69534;SDS011;56754;51.568;5.048;2023-12-22T03:25:00;12.20;;;1.20;;
69534;SDS011;56754;51.568;5.048;2023-12-22T03:27:25;9.90;;;1.13;;
69534;SDS011;56754;51.568;5.048;2023-12-22T03:29:50;10.48;;;1.08;;
69534;SDS011;56754;51.568;5.048;2023-12-22T03:32:15;7.13;;;0.87;;
69534;SDS011;56754;51.568;5.048;2023-12-22T03:34:40;10.63;;;1.30;;
69534;SDS011;56754;51.568;5.048;2023-12-22T03:37:05;11.77;;;1.20;;
69534;SDS011;56754;51.568;5.048;2023-12-22T03:39:30;7.15;;;1.05;;
69534;SDS011;56754;51.568;5.048;2023-12-22T03:41:56;11.63;;;1.00;;
69534;SDS011;56754;51.568;5.048;2023-12-22T03:44:21;15.00;;;1.60;;
69534;SDS011;56754;51.568;5.048;2023-12-22T03:46:46;8.90;;;1.10;;
69534;SDS011;56754;51.568;5.048;2023-12-22T03:49:11;13.13;;;1.50;;
69534;SDS011;56754;51.568;5.048;2023-12-22T03:51:36;7.67;;;0.87;;
69534;SDS011;56754;51.568;5.048;2023-12-22T03:54:02;9.77;;;1.37;;
69534;SDS011;56754;51.568;5.048;2023-12-22T03:56:27;7.03;;;1.17;;
69534;SDS011;56754;51.568;5.048;2023-12-22T03:58:52;6.05;;;0.75;;
69534;SDS011;56754;51.568;5.048;2023-12-22T04:01:17;9.70;;;1.13;;
69534;SDS011;56754;51.568;5.048;2023-12-22T04:03:42;5.60;;;0.95;;
69534;SDS011;56754;51.568;5.048;2023-12-22T04:06:07;8.07;;;1.10;;
69534;SDS011;56754;51.568;5.048;2023-12-22T04:08:33;9.30;;;0.93;;
69534;SDS011;56754;51.568;5.048;2023-12-22T04:10:58;10.57;;;1.03;;
69534;SDS011;56754;51.568;5.048;2023-12-22T04:13:23;12.50;;;1.13;;
69534;SDS011;56754;51.568;5.048;2023-12-22T04:15:48;9.37;;;1.00;;
69534;SDS011;56754;51.568;5.048;2023-12-22T04:18:13;9.30;;;1.10;;
69534;SDS011;56754;51.568;5.048;2023-12-22T04:20:39;5.97;;;0.70;;
69534;SDS011;56754;51.568;5.048;2023-12-22T04:23:04;13.03;;;1.13;;
69534;SDS011;56754;51.568;5.048;2023-12-22T04:25:29;12.33;;;1.20;;
69534;SDS011;56754;51.568;5.048;2023-12-22T04:27:54;7.63;;;0.95;;
69534;SDS011;56754;51.568;5.048;2023-12-22T04:30:19;10.33;;;1.27;;
69534;SDS011;56754;51.568;5.048;2023-12-22T04:32:44;8.03;;;1.27;;
69534;SDS011;56754;51.568;5.048;2023-12-22T04:35:10;8.73;;;1.27;;
69534;SDS011;56754;51.568;5.048;2023-12-22T04:37:35;11.47;;;1.27;;
69534;SDS011;56754;51.568;5.048;2023-12-22T04:40:00;7.00;;;0.65;;
69534;SDS011;56754;51.568;5.048;2023-12-22T04:42:25;8.53;;;1.03;;
69534;SDS011;56754;51.568;5.048;2023-12-22T04:44:51;9.13;;;1.10;;
69534;SDS011;56754;51.568;5.048;2023-12-22T04:47:16;8.73;;;1.00;;
69534;SDS011;56754;51.568;5.048;2023-12-22T04:49:41;8.40;;;0.97;;
69534;SDS011;56754;51.568;5.048;2023-12-22T04:52:06;10.73;;;1.70;;
69534;SDS011;56754;51.568;5.048;2023-12-22T04:54:31;10.47;;;1.30;;
69534;SDS011;56754;51.568;5.048;2023-12-22T04:56:57;10.30;;;1.23;;
69534;SDS011;56754;51.568;5.048;2023-12-22T04:59:22;11.73;;;1.70;;
69534;SDS011;56754;51.568;5.048;2023-12-22T05:01:47;11.30;;;1.30;;
69534;SDS011;56754;51.568;5.048;2023-12-22T05:04:12;12.57;;;1.80;;
69534;SDS011;56754;51.568;5.048;2023-12-22T05:06:37;13.85;;;1.75;;
69534;SDS011;56754;51.568;5.048;2023-12-22T05:09:02;12.82;;;1.90;;
69534;SDS011;56754;51.568;5.048;2023-12-22T05:11:28;10.30;;;1.23;;
69534;SDS011;56754;51.568;5.048;2023-12-22T05:13:53;12.87;;;1.63;;
69534;SDS011;56754;51.568;5.048;2023-12-22T05:16:18;12.90;;;1.73;;
69534;SDS011;56754;51.568;5.048;2023-12-22T05:18:43;9.35;;;1.42;;
69534;SDS011;56754;51.568;5.048;2023-12-22T05:21:11;12.50;;;1.92;;
69534;SDS011;56754;51.568;5.048;2023-12-22T05:23:36;9.65;;;1.50;;
69534;SDS011;56754;51.568;5.048;2023-12-22T05:26:01;14.33;;;1.90;;
69534;SDS011;56754;51.568;5.048;2023-12-22T05:28:27;16.80;;;2.00;;
69534;SDS011;56754;51.568;5.048;2023-12-22T05:30:52;12.07;;;1.70;;
69534;SDS011;56754;51.568;5.048;2023-12-22T05:33:17;14.80;;;1.63;;
69534;SDS011;56754;51.568;5.048;2023-12-22T05:35:42;13.32;;;1.73;;
69534;SDS011;56754;51.568;5.048;2023-12-22T05:38:07;12.55;;;1.90;;
69534;SDS011;56754;51.568;5.048;2023-12-22T05:40:32;14.95;;;2.03;;
69534;SDS011;56754;51.568;5.048;2023-12-22T05:42:57;12.38;;;1.88;;
69534;SDS011;56754;51.568;5.048;2023-12-22T05:45:23;16.53;;;2.23;;
69534;SDS011;56754;51.568;5.048;2023-12-22T05:47:48;16.50;;;1.85;;
69534;SDS011;56754;51.568;5.048;2023-12-22T05:50:13;19.00;;;2.63;;
69534;SDS011;56754;51.568;5.048;2023-12-22T05:52:38;13.10;;;2.20;;
69534;SDS011;56754;51.568;5.048;2023-12-22T05:55:03;16.10;;;2.65;;
69534;SDS011;56754;51.568;5.048;2023-12-22T05:57:29;14.70;;;2.20;;
69534;SDS011;56754;51.568;5.048;2023-12-22T05:59:54;15.23;;;1.88;;
69534;SDS011;56754;51.568;5.048;2023-12-22T06:02:19;15.23;;;2.17;;
69534;SDS011;56754;51.568;5.048;2023-12-22T06:04:44;17.63;;;2.37;;
69534;SDS011;56754;51.568;5.048;2023-12-22T06:07:12;21.00;;;2.83;;
69534;SDS011;56754;51.568;5.048;2023-12-22T06:09:37;19.75;;;2.88;;
69534;SDS011;56754;51.568;5.048;2023-12-22T06:12:02;15.32;;;1.98;;
69534;SDS011;56754;51.568;5.048;2023-12-22T06:14:28;16.20;;;2.67;;
69534;SDS011;56754;51.568;5.048;2023-12-22T06:16:53;18.03;;;2.27;;
69534;SDS011;56754;51.568;5.048;2023-12-22T06:19:18;16.67;;;2.80;;
69534;SDS011;56754;51.568;5.048;2023-12-22T06:21:43;17.77;;;2.30;;
69534;SDS011;56754;51.568;5.048;2023-12-22T06:24:08;16.50;;;2.20;;
69534;SDS011;56754;51.568;5.048;2023-12-22T06:26:33;16.55;;;2.42;;
69534;SDS011;56754;51.568;5.048;2023-12-22T06:28:58;16.00;;;2.50;;
69534;SDS011;56754;51.568;5.048;2023-12-22T06:31:24;17.20;;;2.43;;
69534;SDS011;56754;51.568;5.048;2023-12-22T06:33:49;13.90;;;1.77;;
69534;SDS011;56754;51.568;5.048;2023-12-22T06:36:18;20.88;;;2.80;;
69534;SDS011;56754;51.568;5.048;2023-12-22T06:38:43;23.23;;;2.80;;
69534;SDS011;56754;51.568;5.048;2023-12-22T06:41:17;18.35;;;2.30;;
69534;SDS011;56754;51.568;5.048;2023-12-22T06:43:42;19.15;;;2.72;;
69534;SDS011;56754;51.568;5.048;2023-12-22T06:46:14;20.10;;;2.60;;
69534;SDS011;56754;51.568;5.048;2023-12-22T06:48:39;17.60;;;2.70;;
69534;SDS011;56754;51.568;5.048;2023-12-22T06:51:04;21.05;;;3.25;;
69534;SDS011;56754;51.568;5.048;2023-12-22T06:53:29;20.47;;;2.83;;
69534;SDS011;56754;51.568;5.048;2023-12-22T06:55:54;18.17;;;2.90;;
69534;SDS011;56754;51.568;5.048;2023-12-22T06:58:19;17.87;;;2.57;;
69534;SDS011;56754;51.568;5.048;2023-12-22T07:00:48;18.40;;;2.13;;
69534;SDS011;56754;51.568;5.048;2023-12-22T07:03:13;22.98;;;2.80;;
69534;SDS011;56754;51.568;5.048;2023-12-22T07:05:38;17.75;;;2.35;;
69534;SDS011;56754;51.568;5.048;2023-12-22T07:08:04;14.57;;;2.00;;
69534;SDS011;56754;51.568;5.048;2023-12-22T07:10:29;20.80;;;2.90;;
69534;SDS011;56754;51.568;5.048;2023-12-22T07:12:54;16.83;;;2.25;;
69534;SDS011;56754;51.568;5.048;2023-12-22T07:15:19;20.83;;;2.60;;
69534;SDS011;56754;51.568;5.048;2023-12-22T07:17:44;23.20;;;3.00;;
69534;SDS011;56754;51.568;5.048;2023-12-22T07:20:10;12.40;;;1.83;;
69534;SDS011;56754;51.568;5.048;2023-12-22T07:22:35;14.67;;;2.17;;
69534;SDS011;56754;51.568;5.048;2023-12-22T07:25:00;14.40;;;2.17;;
69534;SDS011;56754;51.568;5.048;2023-12-22T07:27:25;18.07;;;2.80;;
69534;SDS011;56754;51.568;5.048;2023-12-22T07:29:50;18.03;;;2.63;;
69534;SDS011;56754;51.568;5.048;2023-12-22T07:32:16;14.20;;;2.20;;
69534;SDS011;56754;51.568;5.048;2023-12-22T07:34:41;14.35;;;2.38;;
69534;SDS011;56754;51.568;5.048;2023-12-22T07:37:06;19.20;;;2.30;;
69534;SDS011;56754;51.568;5.048;2023-12-22T07:39:32;21.27;;;2.20;;
69534;SDS011;56754;51.568;5.048;2023-12-22T07:41:57;15.40;;;2.07;;
69534;SDS011;56754;51.568;5.048;2023-12-22T07:44:22;16.70;;;2.20;;
69534;SDS011;56754;51.568;5.048;2023-12-22T07:46:55;17.60;;;2.50;;
69534;SDS011;56754;51.568;5.048;2023-12-22T07:49:20;17.23;;;2.22;;
69534;SDS011;56754;51.568;5.048;2023-12-22T07:51:45;16.20;;;2.67;;
69534;SDS011;56754;51.568;5.048;2023-12-22T07:54:11;14.83;;;2.00;;
69534;SDS011;56754;51.568;5.048;2023-12-22T07:56:36;15.83;;;2.07;;
69534;SDS011;56754;51.568;5.048;2023-12-22T07:59:01;18.07;;;2.50;;
69534;SDS011;56754;51.568;5.048;2023-12-22T08:01:26;15.13;;;2.00;;
69534;SDS011;56754;51.568;5.048;2023-12-22T08:03:51;11.70;;;1.73;;
69534;SDS011;56754;51.568;5.048;2023-12-22T08:06:16;14.57;;;2.20;;
69534;SDS011;56754;51.568;5.048;2023-12-22T08:08:41;14.50;;;2.00;;
69534;SDS011;56754;51.568;5.048;2023-12-22T08:11:07;13.50;;;1.97;;
69534;SDS011;56754;51.568;5.048;2023-12-22T08:13:32;14.43;;;2.00;;
69534;SDS011;56754;51.568;5.048;2023-12-22T08:15:57;15.70;;;2.10;;
69534;SDS011;56754;51.568;5.048;2023-12-22T08:18:22;14.27;;;1.70;;
69534;SDS011;56754;51.568;5.048;2023-12-22T08:20:47;11.70;;;1.73;;
69534;SDS011;56754;51.568;5.048;2023-12-22T08:23:12;13.87;;;1.73;;
69534;SDS011;56754;51.568;5.048;2023-12-22T08:25:37;11.77;;;1.50;;
69534;SDS011;56754;51.568;5.048;2023-12-22T08:28:03;14.40;;;2.10;;
69534;SDS011;56754;51.568;5.048;2023-12-22T08:30:28;16.13;;;1.80;;
69534;SDS011;56754;51.568;5.048;2023-12-22T08:32:53;14.73;;;1.65;;
69534;SDS011;56754;51.568;5.048;2023-12-22T08:35:18;9.40;;;1.67;;
69534;SDS011;56754;51.568;5.048;2023-12-22T08:37:43;9.45;;;1.30;;
69534;SDS011;56754;51.568;5.048;2023-12-22T08:40:08;10.50;;;1.30;;
69534;SDS011;56754;51.568;5.048;2023-12-22T08:42:34;9.97;;;1.17;;
69534;SDS011;56754;51.568;5.048;2023-12-22T08:44:59;10.47;;;1.70;;
69534;SDS011;56754;51.568;5.048;2023-12-22T08:47:24;8.77;;;1.45;;
69534;SDS011;56754;51.568;5.048;2023-12-22T08:49:49;9.80;;;1.10;;
69534;SDS011;56754;51.568;5.048;2023-12-22T08:52:14;12.73;;;1.48;;
69534;SDS011;56754;51.568;5.048;2023-12-22T08:54:39;8.00;;;1.20;;
69534;SDS011;56754;51.568;5.048;2023-12-22T08:57:05;7.47;;;1.20;;
69534;SDS011;56754;51.568;5.048;2023-12-22T08:59:30;9.53;;;0.90;;
69534;SDS011;56754;51.568;5.048;2023-12-22T09:01:55;7.70;;;1.27;;
69534;SDS011;56754;51.568;5.048;2023-12-22T09:04:20;8.07;;;0.80;;
69534;SDS011;56754;51.568;5.048;2023-12-22T09:06:45;6.73;;;0.90;;
69534;SDS011;56754;51.568;5.048;2023-12-22T09:09:11;11.43;;;1.05;;
69534;SDS011;56754;51.568;5.048;2023-12-22T09:11:36;7.10;;;1.00;;
69534;SDS011;56754;51.568;5.048;2023-12-22T09:14:01;7.60;;;1.00;;
69534;SDS011;56754;51.568;5.048;2023-12-22T09:16:26;8.03;;;0.87;;
69534;SDS011;56754;51.568;5.048;2023-12-22T09:18:51;7.27;;;0.87;;
69534;SDS011;56754;51.568;5.048;2023-12-22T09:21:17;5.00;;;1.00;;
69534;SDS011;56754;51.568;5.048;2023-12-22T09:23:46;8.88;;;0.90;;
69534;SDS011;56754;51.568;5.048;2023-12-22T09:26:12;5.75;;;0.60;;
69534;SDS011;56754;51.568;5.048;2023-12-22T09:28:37;7.47;;;1.03;;
69534;SDS011;56754;51.568;5.048;2023-12-22T09:31:02;5.45;;;0.70;;
69534;SDS011;56754;51.568;5.048;2023-12-22T09:33:28;7.72;;;0.88;;
69534;SDS011;56754;51.568;5.048;2023-12-22T09:35:53;6.03;;;0.70;;
69534;SDS011;56754;51.568;5.048;2023-12-22T09:38:18;5.50;;;0.70;;
69534;SDS011;56754;51.568;5.048;2023-12-22T09:40:43;5.40;;;0.80;;
69534;SDS011;56754;51.568;5.048;2023-12-22T09:43:08;9.47;;;1.00;;
69534;SDS011;56754;51.568;5.048;2023-12-22T09:45:34;5.13;;;0.70;;
69534;SDS011;56754;51.568;5.048;2023-12-22T09:48:00;5.95;;;1.08;;
69534;SDS011;56754;51.568;5.048;2023-12-22T09:50:28;3.80;;;0.40;;
69534;SDS011;56754;51.568;5.048;2023-12-22T09:52:54;5.38;;;0.52;;
69534;SDS011;56754;51.568;5.048;2023-12-22T09:55:21;6.13;;;0.97;;
69534;SDS011;56754;51.568;5.048;2023-12-22T09:57:46;7.17;;;0.97;;
69534;SDS011;56754;51.568;5.048;2023-12-22T10:00:12;7.45;;;0.65;;
69534;SDS011;56754;51.568;5.048;2023-12-22T10:02:39;5.63;;;0.50;;
69534;SDS011;56754;51.568;5.048;2023-12-22T10:05:07;4.93;;;0.60;;
69534;SDS011;56754;51.568;5.048;2023-12-22T10:07:33;5.13;;;0.40;;
69534;SDS011;56754;51.568;5.048;2023-12-22T10:09:59;5.72;;;0.60;;
69534;SDS011;56754;51.568;5.048;2023-12-22T10:12:25;4.80;;;0.60;;
69534;SDS011;56754;51.568;5.048;2023-12-22T10:14:50;5.47;;;0.73;;
69534;SDS011;56754;51.568;5.048;2023-12-22T10:17:16;6.00;;;0.50;;
69534;SDS011;56754;51.568;5.048;2023-12-22T10:19:42;3.60;;;0.53;;
69534;SDS011;56754;51.568;5.048;2023-12-22T10:22:07;6.73;;;0.80;;
69534;SDS011;56754;51.568;5.048;2023-12-22T10:25:05;5.88;;;0.70;;
69534;SDS011;56754;51.568;5.048;2023-12-22T10:27:23;5.88;;;0.50;;
69534;SDS011;56754;51.568;5.048;2023-12-22T10:29:49;3.87;;;0.50;;
69534;SDS011;56754;51.568;5.048;2023-12-22T10:32:14;5.57;;;1.17;;
69534;SDS011;56754;51.568;5.048;2023-12-22T10:34:40;5.80;;;0.65;;
69534;SDS011;56754;51.568;5.048;2023-12-22T10:37:05;4.47;;;0.47;;
69534;SDS011;56754;51.568;5.048;2023-12-22T10:39:30;6.33;;;0.80;;
69534;SDS011;56754;51.568;5.048;2023-12-22T10:41:56;3.77;;;0.50;;
69534;SDS011;56754;51.568;5.048;2023-12-22T10:44:23;5.03;;;0.63;;
69534;SDS011;56754;51.568;5.048;2023-12-22T10:46:49;4.83;;;0.50;;
69534;SDS011;56754;51.568;5.048;2023-12-22T10:49:14;3.35;;;0.40;;
69534;SDS011;56754;51.568;5.048;2023-12-22T10:51:39;3.25;;;0.52;;
69534;SDS011;56754;51.568;5.048;2023-12-22T10:54:04;5.20;;;0.50;;
69534;SDS011;56754;51.568;5.048;2023-12-22T10:56:29;3.83;;;0.43;;
69534;SDS011;56754;51.568;5.048;2023-12-22T10:58:55;5.10;;;0.80;;
69534;SDS011;56754;51.568;5.048;2023-12-22T11:01:20;3.27;;;0.40;;
69534;SDS011;56754;51.568;5.048;2023-12-22T11:03:46;5.15;;;0.73;;
69534;SDS011;56754;51.568;5.048;2023-12-22T11:06:13;3.00;;;0.33;;
69534;SDS011;56754;51.568;5.048;2023-12-22T11:08:43;4.53;;;0.50;;
69534;SDS011;56754;51.568;5.048;2023-12-22T11:11:23;5.18;;;0.52;;
69534;SDS011;56754;51.568;5.048;2023-12-22T11:13:53;5.13;;;0.57;;
69534;SDS011;56754;51.568;5.048;2023-12-22T11:16:18;5.10;;;0.60;;
69534;SDS011;56754;51.568;5.048;2023-12-22T11:18:44;6.47;;;0.70;;
69534;SDS011;56754;51.568;5.048;2023-12-22T11:21:09;5.03;;;0.60;;
69534;SDS011;56754;51.568;5.048;2023-12-22T11:23:38;6.87;;;0.57;;
69534;SDS011;56754;51.568;5.048;2023-12-22T11:26:04;4.30;;;0.40;;
69534;SDS011;56754;51.568;5.048;2023-12-22T11:28:30;5.17;;;0.47;;
69534;SDS011;56754;51.568;5.048;2023-12-22T11:30:56;4.63;;;0.57;;
69534;SDS011;56754;51.568;5.048;2023-12-22T11:33:23;4.22;;;0.47;;
69534;SDS011;56754;51.568;5.048;2023-12-22T11:35:50;5.07;;;0.40;;
69534;SDS011;56754;51.568;5.048;2023-12-22T11:38:17;5.13;;;0.85;;
69534;SDS011;56754;51.568;5.048;2023-12-22T11:40:42;6.87;;;0.70;;
69534;SDS011;56754;51.568;5.048;2023-12-22T11:43:07;3.73;;;0.50;;
69534;SDS011;56754;51.568;5.048;2023-12-22T11:45:33;3.10;;;0.47;;
69534;SDS011;56754;51.568;5.048;2023-12-22T11:48:10;7.40;;;0.77;;
69534;SDS011;56754;51.568;5.048;2023-12-22T11:50:35;6.82;;;0.50;;
69534;SDS011;56754;51.568;5.048;2023-12-22T11:58:51;3.30;;;0.35;;
69534;SDS011;56754;51.568;5.048;2023-12-22T12:01:18;4.55;;;0.50;;
69534;SDS011;56754;51.568;5.048;2023-12-22T12:03:50;5.27;;;0.43;;
69534;SDS011;56754;51.568;5.048;2023-12-22T12:08:40;5.40;;;0.50;;
69534;SDS011;56754;51.568;5.048;2023-12-22T12:11:06;6.17;;;0.57;;
69534;SDS011;56754;51.568;5.048;2023-12-22T12:13:31;5.88;;;0.60;;
69534;SDS011;56754;51.568;5.048;2023-12-22T12:15:58;7.63;;;0.80;;
69534;SDS011;56754;51.568;5.048;2023-12-22T12:18:23;6.87;;;0.60;;
69534;SDS011;56754;51.568;5.048;2023-12-22T12:20:49;5.50;;;0.50;;
69534;SDS011;56754;51.568;5.048;2023-12-22T12:23:15;5.80;;;0.67;;
69534;SDS011;56754;51.568;5.048;2023-12-22T12:25:40;4.80;;;0.60;;
69534;SDS011;56754;51.568;5.048;2023-12-22T12:28:05;6.20;;;0.57;;
69534;SDS011;56754;51.568;5.048;2023-12-22T12:30:31;7.47;;;1.00;;
69534;SDS011;56754;51.568;5.048;2023-12-22T12:32:58;5.17;;;0.77;;
69534;SDS011;56754;51.568;5.048;2023-12-22T12:35:23;4.88;;;0.85;;
69534;SDS011;56754;51.568;5.048;2023-12-22T12:37:50;6.38;;;0.60;;
69534;SDS011;56754;51.568;5.048;2023-12-22T12:40:16;6.25;;;0.50;;
69534;SDS011;56754;51.568;5.048;2023-12-22T12:42:43;5.30;;;0.50;;
69534;SDS011;56754;51.568;5.048;2023-12-22T12:45:08;6.75;;;0.60;;
69534;SDS011;56754;51.568;5.048;2023-12-22T12:47:33;5.43;;;0.53;;
69534;SDS011;56754;51.568;5.048;2023-12-22T12:49:59;8.32;;;0.85;;
69534;SDS011;56754;51.568;5.048;2023-12-22T12:52:25;6.07;;;0.83;;
69534;SDS011;56754;51.568;5.048;2023-12-22T12:54:50;6.13;;;0.70;;
69534;SDS011;56754;51.568;5.048;2023-12-22T12:57:15;6.17;;;0.70;;
69534;SDS011;56754;51.568;5.048;2023-12-22T12:59:44;3.70;;;0.40;;
69534;SDS011;56754;51.568;5.048;2023-12-22T13:02:09;7.55;;;0.55;;
69534;SDS011;56754;51.568;5.048;2023-12-22T13:04:37;5.63;;;0.50;;
69534;SDS011;56754;51.568;5.048;2023-12-22T13:07:03;7.03;;;0.70;;
69534;SDS011;56754;51.568;5.048;2023-12-22T13:09:31;6.87;;;0.60;;
69534;SDS011;56754;51.568;5.048;2023-12-22T13:11:56;5.05;;;0.82;;
69534;SDS011;56754;51.568;5.048;2023-12-22T13:14:22;8.10;;;0.80;;
69534;SDS011;56754;51.568;5.048;2023-12-22T13:16:47;5.17;;;0.80;;
69534;SDS011;56754;51.568;5.048;2023-12-22T13:19:13;5.78;;;0.60;;
69534;SDS011;56754;51.568;5.048;2023-12-22T13:21:38;6.37;;;0.70;;
69534;SDS011;56754;51.568;5.048;2023-12-22T13:24:13;3.13;;;0.57;;
69534;SDS011;56754;51.568;5.048;2023-12-22T13:26:39;5.40;;;0.70;;
69534;SDS011;56754;51.568;5.048;2023-12-22T13:29:05;6.33;;;0.60;;
69534;SDS011;56754;51.568;5.048;2023-12-22T13:31:31;7.18;;;0.75;;
69534;SDS011;56754;51.568;5.048;2023-12-22T13:33:57;7.25;;;0.80;;
69534;SDS011;56754;51.568;5.048;2023-12-22T13:36:22;5.27;;;0.90;;
69534;SDS011;56754;51.568;5.048;2023-12-22T13:38:47;6.87;;;1.10;;
69534;SDS011;56754;51.568;5.048;2023-12-22T13:41:13;6.13;;;0.80;;
69534;SDS011;56754;51.568;5.048;2023-12-22T13:43:38;7.82;;;0.90;;
69534;SDS011;56754;51.568;5.048;2023-12-22T13:46:03;5.17;;;0.70;;
69534;SDS011;56754;51.568;5.048;2023-12-22T13:48:29;7.07;;;1.03;;
69534;SDS011;56754;51.568;5.048;2023-12-22T13:50:55;8.23;;;0.70;;
69534;SDS011;56754;51.568;5.048;2023-12-22T13:53:21;5.03;;;0.80;;
69534;SDS011;56754;51.568;5.048;2023-12-22T13:55:53;5.70;;;0.83;;
69534;SDS011;56754;51.568;5.048;2023-12-22T13:58:18;9.02;;;0.80;;
69534;SDS011;56754;51.568;5.048;2023-12-22T14:00:43;5.18;;;0.70;;
69534;SDS011;56754;51.568;5.048;2023-12-22T14:03:08;5.23;;;0.67;;
69534;SDS011;56754;51.568;5.048;2023-12-22T14:05:33;6.25;;;1.10;;
69534;SDS011;56754;51.568;5.048;2023-12-22T14:07:59;7.35;;;0.73;;
69534;SDS011;56754;51.568;5.048;2023-12-22T14:10:24;5.47;;;0.60;;
69534;SDS011;56754;51.568;5.048;2023-12-22T14:12:49;8.13;;;0.90;;
69534;SDS011;56754;51.568;5.048;2023-12-22T14:15:17;7.32;;;0.90;;
69534;SDS011;56754;51.568;5.048;2023-12-22T14:17:43;5.18;;;0.63;;
69534;SDS011;56754;51.568;5.048;2023-12-22T14:20:08;4.30;;;0.60;;
69534;SDS011;56754;51.568;5.048;2023-12-22T14:22:34;5.50;;;0.50;;
69534;SDS011;56754;51.568;5.048;2023-12-22T14:24:59;6.03;;;0.90;;
69534;SDS011;56754;51.568;5.048;2023-12-22T14:27:24;5.60;;;0.70;;
69534;SDS011;56754;51.568;5.048;2023-12-22T14:29:49;7.60;;;0.83;;
69534;SDS011;56754;51.568;5.048;2023-12-22T14:32:14;4.82;;;0.55;;
69534;SDS011;56754;51.568;5.048;2023-12-22T14:34:40;7.43;;;0.93;;
69534;SDS011;56754;51.568;5.048;2023-12-22T14:37:05;4.87;;;0.77;;
69534;SDS011;56754;51.568;5.048;2023-12-22T14:39:30;6.63;;;0.60;;